Time;durP1;ratioP1;P1;durP2;ratioP2;P2;SDS_P1;SDS_P2;PMS_P1;PMS_P2;Temp;Humidity;BMP_temperature;BMP_pressure;BME280_temperature;BME280_humidity;BME280_pressure;Samples;Min_cycle;Max_cycle;Signal;HPM_P1;HPM_P2
2023/07/28 00:02:18;;;;;;;0.22;0.22;;;;;;;16.62;90.42;96593.53;5040481;28;20397;-73
2023/07/28 00:04:47;;;;;;;0.10;0.10;;;;;;;16.62;90.45;96598.91;5040860;28;20056;-74
2023/07/28 00:07:15;;;;;;;0.10;0.10;;;;;;;16.64;90.55;96599.47;5040093;28;20049;-72
2023/07/28 00:09:43;;;;;;;0.10;0.10;;;;;;;16.61;91.06;96592.69;5042619;28;20042;-73
2023/07/28 00:12:10;;;;;;;0.10;0.10;;;;;;;16.56;91.14;96587.28;5044059;28;20049;-73
2023/07/28 00:14:38;;;;;;;0.10;0.10;;;;;;;16.52;91.27;96586.16;5043998;28;20041;-73
2023/07/28 00:17:06;;;;;;;0.10;0.10;;;;;;;16.48;91.97;96593.94;5044834;28;20057;-73
2023/07/28 00:19:33;;;;;;;0.20;0.20;;;;;;;16.53;92.12;96582.38;5044218;28;20060;-73
2023/07/28 00:22:03;;;;;;;0.10;0.10;;;;;;;16.50;91.98;96591.81;5042980;28;20124;-73
2023/07/28 00:24:30;;;;;;;0.10;0.10;;;;;;;16.46;91.92;96590.69;5044187;28;20041;-73
2023/07/28 00:26:58;;;;;;;0.10;0.10;;;;;;;16.49;92.23;96590.19;5042503;28;20465;-72
2023/07/28 00:29:25;;;;;;;0.10;0.10;;;;;;;16.47;91.89;96589.63;5041937;28;20037;-73
2023/07/28 00:31:53;;;;;;;0.10;0.10;;;;;;;16.51;92.06;96590.72;5025434;28;20465;-73
2023/07/28 00:34:21;;;;;;;0.10;0.10;;;;;;;16.55;92.17;96584.81;5026169;28;20045;-73
2023/07/28 00:36:49;;;;;;;0.10;0.10;;;;;;;16.55;91.92;96590.22;5044168;28;20048;-73
2023/07/28 00:39:18;;;;;;;0.10;0.10;;;;;;;16.59;91.95;96594.84;5043251;28;20537;-73
2023/07/28 00:41:46;;;;;;;0.10;0.10;;;;;;;16.55;92.08;96590.22;5044299;28;20044;-73
2023/07/28 00:44:14;;;;;;;0.10;0.10;;;;;;;16.60;91.92;96590.28;5026714;28;20127;-73
2023/07/28 00:46:42;;;;;;;0.10;0.10;;;;;;;16.56;92.01;96587.28;5026592;28;20045;-73
2023/07/28 00:49:10;;;;;;;0.10;0.10;;;;;;;16.49;92.41;96582.09;5024862;28;20053;-72
2023/07/28 00:51:38;;;;;;;0.10;0.10;;;;;;;16.46;92.83;96587.19;5026378;28;20080;-72
2023/07/28 00:54:06;;;;;;;0.10;0.10;;;;;;;16.53;92.60;96577.00;5042488;28;20084;-73
2023/07/28 00:56:35;;;;;;;0.10;0.10;;;;;;;16.45;92.68;96572.91;5025404;28;20111;-73
2023/07/28 00:59:03;;;;;;;0.30;0.30;;;;;;;16.44;92.77;96571.28;5025722;28;20206;-73
2023/07/28 01:01:30;;;;;;;0.10;0.10;;;;;;;16.47;92.89;96575.34;5025790;28;20098;-73
2023/07/28 01:03:58;;;;;;;0.10;0.10;;;;;;;16.47;92.83;96567.25;5041876;28;20054;-72
2023/07/28 01:06:31;;;;;;;0.10;0.10;;;;;;;16.50;92.79;96569.44;5043533;28;20034;-72
2023/07/28 01:09:03;;;;;;;0.10;0.10;;;;;;;16.50;92.82;96574.84;5042443;28;20048;-73
2023/07/28 01:11:31;;;;;;;0.10;0.10;;;;;;;16.50;92.61;96569.44;5042930;28;20037;-72
2023/07/28 01:14:00;;;;;;;0.10;0.10;;;;;;;16.54;92.63;96570.53;5026092;28;20052;-72
2023/07/28 01:16:27;;;;;;;0.00;0.00;;;;;;;16.52;92.39;96575.38;5044100;28;20108;-72
2023/07/28 01:18:56;;;;;;;0.10;0.10;;;;;;;16.50;92.54;96567.56;5042062;28;20558;-72
2023/07/28 01:21:32;;;;;;;0.47;0.47;;;;;;;16.50;92.60;96569.44;5041935;28;20395;-72
2023/07/28 01:24:09;;;;;;;0.10;0.10;;;;;;;16.49;92.77;96565.13;5042886;28;20047;-73
2023/07/28 01:26:38;;;;;;;0.10;0.10;;;;;;;16.46;92.71;96557.56;5042191;28;20051;-72
2023/07/28 01:29:06;;;;;;;0.10;0.10;;;;;;;16.42;92.82;96568.03;5041503;28;20076;-73
2023/07/28 01:31:34;;;;;;;0.10;0.10;;;;;;;16.43;92.96;96568.84;5041862;28;20033;-72
2023/07/28 01:34:01;;;;;;;0.10;0.10;;;;;;;16.41;92.85;96568.28;5042290;28;20122;-72
2023/07/28 01:36:29;;;;;;;0.08;0.08;;;;;;;16.42;92.99;96578.78;5045192;28;20124;-72
2023/07/28 01:38:57;;;;;;;0.10;0.10;;;;;;;16.40;93.14;96578.22;5025908;28;20089;-71
2023/07/28 01:41:24;;;;;;;0.10;0.10;;;;;;;16.39;93.13;96576.63;5042386;28;20029;-71
2023/07/28 01:43:55;;;;;;;0.10;0.10;;;;;;;16.38;92.91;96577.69;5024813;28;20418;-71
2023/07/28 01:46:23;;;;;;;0.10;0.10;;;;;;;16.39;92.97;96573.13;5042228;28;20498;-72
2023/07/28 01:48:51;;;;;;;0.10;0.10;;;;;;;16.38;92.86;96580.41;5024976;28;20061;-72
2023/07/28 01:51:19;;;;;;;0.05;0.05;;;;;;;16.45;92.68;96585.56;5041899;28;20053;-72
2023/07/28 01:53:47;;;;;;;0.10;0.10;;;;;;;16.40;92.40;96575.53;5042161;28;20591;-73
2023/07/28 01:56:14;;;;;;;0.10;0.10;;;;;;;16.41;92.39;96576.34;5025248;28;20055;-73
2023/07/28 01:58:42;;;;;;;0.10;0.10;;;;;;;16.49;92.16;96571.34;5025037;28;20041;-73
2023/07/28 02:01:13;;;;;;;0.03;0.03;;;;;;;16.52;91.69;96570.78;5024273;28;20033;-73
2023/07/28 02:03:41;;;;;;;0.10;0.10;;;;;;;16.49;91.97;96565.94;5042766;28;20064;-73
2023/07/28 02:06:10;;;;;;;0.50;0.50;;;;;;;16.49;91.91;96560.56;5040271;28;20396;-73
2023/07/28 02:08:38;;;;;;;0.10;0.10;;;;;;;16.47;91.84;96565.38;5023002;28;20135;-73
2023/07/28 02:11:05;;;;;;;0.10;0.10;;;;;;;16.52;91.77;96562.72;5025125;28;20040;-73
2023/07/28 02:13:34;;;;;;;0.10;0.10;;;;;;;16.53;91.55;96560.84;5025873;28;20045;-73
2023/07/28 02:16:03;;;;;;;0.10;0.10;;;;;;;16.46;91.66;96558.38;5023469;28;20041;-73
2023/07/28 02:18:32;;;;;;;0.08;0.08;;;;;;;16.44;91.67;96551.59;5024283;28;20126;-73
2023/07/28 02:21:00;;;;;;;0.10;0.10;;;;;;;16.42;91.57;96562.63;5025894;28;20036;-72
2023/07/28 02:23:28;;;;;;;0.10;0.10;;;;;;;16.49;91.36;96560.56;5024830;28;20045;-73
2023/07/28 02:25:55;;;;;;;0.10;0.10;;;;;;;16.40;91.68;96562.06;5040255;28;20048;-73
2023/07/28 02:28:23;;;;;;;0.10;0.10;;;;;;;16.40;91.89;96562.06;5023511;28;20041;-72
2023/07/28 02:30:51;;;;;;;0.10;0.10;;;;;;;16.37;91.81;96568.00;5024983;28;20057;-73
2023/07/28 02:33:19;;;;;;;0.10;0.10;;;;;;;16.40;92.12;96559.38;5040565;28;20490;-72
2023/07/28 02:35:48;;;;;;;0.10;0.10;;;;;;;16.38;91.76;96563.41;5023254;28;20144;-73
2023/07/28 02:38:16;;;;;;;0.10;0.10;;;;;;;16.38;92.05;96553.47;5043774;28;20091;-73
2023/07/28 02:40:43;;;;;;;0.13;0.13;;;;;;;16.39;92.09;96555.09;5023252;28;20049;-73
2023/07/28 02:43:11;;;;;;;0.10;0.10;;;;;;;16.35;92.14;96553.97;5041013;28;20150;-73
2023/07/28 02:45:39;;;;;;;0.10;0.10;;;;;;;16.35;92.20;96553.97;5021756;28;20049;-73
2023/07/28 02:48:06;;;;;;;0.10;0.10;;;;;;;16.37;92.20;96559.91;5023289;28;20477;-73
2023/07/28 02:50:35;;;;;;;0.10;0.10;;;;;;;16.34;92.32;96556.91;5043120;28;20099;-73
2023/07/28 02:53:04;;;;;;;0.10;0.10;;;;;;;16.37;92.00;96567.19;5047142;28;20037;-73
2023/07/28 02:55:32;;;;;;;0.10;0.10;;;;;;;16.32;92.04;96570.63;5023225;28;20390;-73
2023/07/28 02:58:00;;;;;;;0.10;0.10;;;;;;;16.34;92.08;96570.38;5023745;28;20417;-74
2023/07/28 03:00:28;;;;;;;0.10;0.10;;;;;;;16.34;92.42;96573.88;5024720;28;20597;-74
2023/07/28 03:02:56;;;;;;;0.00;0.00;;;;;;;16.35;92.17;96578.19;5023425;28;20045;-74
2023/07/28 03:05:24;;;;;;;0.13;0.13;;;;;;;16.33;92.10;96568.75;5021296;28;20501;-73
2023/07/28 03:08:13;;;;;;;0.10;0.10;;;;;;;16.31;92.50;96571.69;5038593;28;20049;-73
2023/07/28 03:10:41;;;;;;;0.13;0.13;;;;;;;16.37;91.97;96565.31;5023038;28;20478;-73
2023/07/28 03:13:09;;;;;;;0.10;0.10;;;;;;;16.32;92.03;96551.78;5022531;28;20048;-74
2023/07/28 03:15:36;;;;;;;0.05;0.05;;;;;;;16.30;92.15;96559.28;5041353;28;20033;-73
2023/07/28 03:18:04;;;;;;;0.10;0.10;;;;;;;16.27;92.31;96550.94;5022946;28;20053;-73
2023/07/28 03:20:32;;;;;;;0.20;0.20;;;;;;;16.28;92.11;96549.88;5023296;28;20045;-73
2023/07/28 03:23:00;;;;;;;0.17;0.17;;;;;;;16.25;92.45;96542.28;5041618;28;20689;-73
2023/07/28 03:25:29;;;;;;;0.15;0.15;;;;;;;16.27;92.47;96550.94;5023348;28;20080;-73
2023/07/28 03:27:57;;;;;;;0.10;0.10;;;;;;;16.27;92.28;96542.84;5041051;28;20041;-72
2023/07/28 03:30:25;;;;;;;0.10;0.10;;;;;;;16.33;91.98;96561.47;5022242;28;20102;-72
2023/07/28 03:32:52;;;;;;;0.10;0.10;;;;;;;16.31;92.12;96550.16;5023287;28;20555;-73
2023/07/28 03:35:20;;;;;;;0.10;0.10;;;;;;;16.30;92.15;96547.75;5022572;28;20052;-73
2023/07/28 03:37:57;;;;;;;0.10;0.10;;;;;;;16.32;92.08;96548.28;5023321;28;20052;-73
2023/07/28 03:40:25;;;;;;;0.05;0.05;;;;;;;16.29;92.08;96554.19;5040180;28;20045;-72
2023/07/28 03:42:56;;;;;;;0.10;0.10;;;;;;;16.26;92.05;96562.78;5023525;28;20053;-71
2023/07/28 03:45:24;;;;;;;0.10;0.10;;;;;;;16.27;92.21;96567.91;5044486;28;20045;-73
2023/07/28 03:47:51;;;;;;;0.10;0.10;;;;;;;16.26;92.31;96560.06;5027009;28;20480;-73
2023/07/28 03:50:19;;;;;;;0.00;0.00;;;;;;;16.27;92.37;96575.97;5027173;28;20052;-72
2023/07/28 03:52:47;;;;;;;0.10;0.10;;;;;;;16.24;92.42;96576.50;5027061;28;20052;-73
2023/07/28 03:55:15;;;;;;;0.20;0.20;;;;;;;16.27;92.49;96583.25;5024881;28;20482;-73
2023/07/28 03:57:42;;;;;;;0.10;0.10;;;;;;;16.25;92.49;96570.03;5045100;28;20502;-74
2023/07/28 04:00:13;;;;;;;0.20;0.20;;;;;;;16.29;92.34;96570.34;5025635;28;20129;-73
2023/07/28 04:02:41;;;;;;;0.10;0.10;;;;;;;16.31;92.44;96577.06;5043068;28;20069;-73
2023/07/28 04:05:09;;;;;;;0.10;0.10;;;;;;;16.31;92.18;96582.47;5043549;28;20044;-73
2023/07/28 04:07:37;;;;;;;0.10;0.10;;;;;;;16.30;92.08;96582.75;5026920;28;20041;-73
2023/07/28 04:10:06;;;;;;;0.10;0.10;;;;;;;16.29;92.13;96581.94;5026745;28;20057;-73
2023/07/28 04:12:33;;;;;;;0.28;0.28;;;;;;;16.36;92.17;96582.53;5043442;28;20033;-73
2023/07/28 04:15:01;;;;;;;0.08;0.08;;;;;;;16.31;91.69;96587.84;5026229;28;20051;-73
2023/07/28 04:17:30;;;;;;;0.10;0.10;;;;;;;16.30;91.78;96591.59;5044290;28;20049;-73
2023/07/28 04:19:58;;;;;;;0.10;0.10;;;;;;;16.28;91.35;96582.19;5025955;28;20055;-73
2023/07/28 04:22:28;;;;;;;0.20;0.20;;;;;;;16.28;91.27;96587.56;5025843;28;20047;-73
2023/07/28 04:24:56;;;;;;;0.10;0.10;;;;;;;16.28;91.92;96592.97;5025389;28;20049;-71
2023/07/28 04:27:24;;;;;;;0.10;0.10;;;;;;;16.29;92.33;96599.97;5025847;28;20137;-73
2023/07/28 04:29:58;;;;;;;0.10;0.10;;;;;;;16.28;91.84;96599.16;5025413;28;20053;-73
2023/07/28 04:32:26;;;;;;;0.10;0.10;;;;;;;16.31;91.97;96606.69;5025983;28;20045;-72
2023/07/28 04:34:57;;;;;;;0.10;0.10;;;;;;;16.33;92.10;96614.53;5025866;28;20052;-72
2023/07/28 04:38:03;;;;;;;0.13;0.13;;;;;;;16.38;91.94;96626.19;5025659;28;20056;-72
2023/07/28 04:40:48;;;;;;;;;;;;;;;16.40;91.66;96629.41;5027256;28;20045;-72
2023/07/28 04:43:19;;;;;;;0.10;0.10;;;;;;;16.41;91.76;96632.91;5026044;28;19925;-72
2023/07/28 04:45:53;;;;;;;0.10;0.10;;;;;;;16.44;91.37;96629.72;5026786;28;20136;-72
2023/07/28 04:48:23;;;;;;;0.10;0.10;;;;;;;16.40;91.40;96617.84;5025352;28;20057;-73
2023/07/28 04:50:52;;;;;;;0.13;0.13;;;;;;;16.44;91.60;96629.72;5025148;28;20132;-73
2023/07/28 04:53:43;;;;;;;0.10;0.10;;;;;;;16.40;91.74;96624.03;5034112;28;20052;-72
2023/07/28 04:56:17;;;;;;;0.10;0.10;;;;;;;16.39;91.91;96617.03;5025282;28;20056;-72
2023/07/28 04:58:45;;;;;;;0.40;0.40;;;;;;;16.43;92.32;96633.47;5025509;28;20458;-71
2023/07/28 05:01:13;;;;;;;0.20;0.20;;;;;;;16.40;92.42;96632.09;5041259;28;20041;-73
2023/07/28 05:03:45;;;;;;;0.10;0.10;;;;;;;16.35;92.32;96634.75;5042536;28;20065;-72
2023/07/28 05:06:24;;;;;;;0.10;0.10;;;;;;;16.36;92.84;96630.19;5040976;28;20137;-71
2023/07/28 05:08:52;;;;;;;0.15;0.15;;;;;;;16.34;92.57;96625.06;5043851;28;20121;-73
2023/07/28 05:11:26;;;;;;;0.10;0.10;;;;;;;16.33;92.36;96626.13;5027017;28;20045;-72
2023/07/28 05:13:54;;;;;;;0.13;0.13;;;;;;;16.34;92.81;96630.44;5024884;28;20052;-72
2023/07/28 05:16:22;;;;;;;0.15;0.15;;;;;;;16.34;92.51;96635.00;5042615;28;20051;-72
2023/07/28 05:19:09;;;;;;;0.08;0.08;;;;;;;16.35;92.82;96637.47;5041661;28;20057;-72
2023/07/28 05:21:52;;;;;;;0.10;0.10;;;;;;;16.33;92.58;96634.19;5042306;28;20056;-71
2023/07/28 05:24:26;;;;;;;0.10;0.10;;;;;;;16.32;92.35;96631.75;5025826;28;20645;-72
2023/07/28 05:26:53;;;;;;;0.13;0.13;;;;;;;16.37;92.54;96621.84;5025631;28;20095;-72
2023/07/28 05:29:21;;;;;;;0.13;0.13;;;;;;;16.36;92.36;96624.81;5022975;28;20049;-73
2023/07/28 05:31:49;;;;;;;0.00;0.00;;;;;;;16.34;92.36;96624.25;5024502;28;20076;-72
2023/07/28 05:34:25;;;;;;;0.32;0.32;;;;;;;16.35;92.46;96617.78;5047829;28;20390;-72
2023/07/28 05:36:54;;;;;;;0.50;0.50;;;;;;;16.36;92.50;96620.22;5025651;28;20463;-72
2023/07/28 05:39:25;;;;;;;0.10;0.10;;;;;;;16.44;92.50;96629.72;5023718;28;20037;-72
2023/07/28 05:41:53;;;;;;;0.10;0.10;;;;;;;16.58;92.26;96635.50;5047286;28;20069;-72
2023/07/28 05:44:20;;;;;;;0.10;0.10;;;;;;;16.57;92.13;96625.78;5024501;28;20092;-72
2023/07/28 05:46:50;;;;;;;0.10;0.10;;;;;;;16.61;91.67;96629.63;5023763;28;20128;-72
2023/07/28 05:49:18;;;;;;;0.15;0.15;;;;;;;16.62;91.46;96631.25;5028046;28;20090;-72
2023/07/28 05:51:45;;;;;;;0.13;0.13;;;;;;;16.67;91.28;96634.81;5033472;28;20405;-72
2023/07/28 05:54:16;;;;;;;0.10;0.10;;;;;;;16.70;91.08;96630.81;5030607;28;20041;-71
2023/07/28 05:56:44;;;;;;;0.03;0.03;;;;;;;16.77;91.11;96634.09;5024622;28;20482;-72
2023/07/28 05:59:12;;;;;;;0.03;0.03;;;;;;;16.84;91.22;96632.78;5023940;28;20126;-74
2023/07/28 06:01:40;;;;;;;0.10;0.10;;;;;;;16.96;91.08;96637.19;5024023;28;20140;-73
2023/07/28 06:04:29;;;;;;;0.10;0.10;;;;;;;16.99;90.58;96640.19;5040301;28;20045;-74
2023/07/28 06:06:59;;;;;;;0.10;0.10;;;;;;;17.04;89.90;96647.47;5022662;28;20080;-74
2023/07/28 06:09:28;;;;;;;0.10;0.10;;;;;;;17.11;89.60;96640.00;5022853;28;20040;-74
2023/07/28 06:11:55;;;;;;;0.10;0.10;;;;;;;17.18;88.37;96640.56;5041767;28;20398;-73
2023/07/28 06:14:26;;;;;;;0.10;0.10;;;;;;;17.23;88.67;96652.19;5025267;28;20111;-73
2023/07/28 06:16:55;;;;;;;0.10;0.10;;;;;;;17.34;88.84;96646.91;5024361;28;20041;-74
2023/07/28 06:19:25;;;;;;;0.00;0.00;;;;;;;17.43;87.39;96650.72;5041271;28;20522;-74
2023/07/28 06:21:53;;;;;;;0.13;0.13;;;;;;;17.49;87.26;96657.75;5024103;28;20657;-74
2023/07/28 06:24:21;;;;;;;0.10;0.10;;;;;;;17.47;87.24;96652.63;5022999;28;20056;-73
2023/07/28 06:26:50;;;;;;;0.00;0.00;;;;;;;17.48;87.41;96664.22;5041253;28;20037;-74
2023/07/28 06:29:18;;;;;;;0.10;0.10;;;;;;;17.47;86.55;96676.91;5024549;28;20396;-73
2023/07/28 06:31:45;;;;;;;0.10;0.10;;;;;;;17.46;86.89;96677.97;5023102;28;20055;-74
2023/07/28 06:34:13;;;;;;;0.10;0.10;;;;;;;17.50;87.52;96672.88;5041683;28;20044;-73
2023/07/28 06:36:41;;;;;;;0.10;0.10;;;;;;;17.48;87.00;96670.44;5022861;28;20127;-71
2023/07/28 06:39:09;;;;;;;0.13;0.13;;;;;;;17.54;87.19;96674.81;5041012;28;20501;-71
2023/07/28 06:41:36;;;;;;;0.10;0.10;;;;;;;17.53;87.09;96672.38;5023293;28;20457;-72
2023/07/28 06:44:09;;;;;;;0.17;0.17;;;;;;;17.59;87.04;96674.00;5023381;28;20049;-74
2023/07/28 06:46:37;;;;;;;0.10;0.10;;;;;;;17.55;86.50;96673.72;5042915;28;20095;-73
2023/07/28 06:49:06;;;;;;;0.10;0.10;;;;;;;17.57;86.71;96673.44;5024315;28;20135;-72
2023/07/28 06:51:34;;;;;;;0.03;0.03;;;;;;;17.56;86.75;96678.03;5023738;28;20037;-72
2023/07/28 06:54:03;;;;;;;0.10;0.10;;;;;;;17.63;86.89;96683.25;5042764;28;20091;-73
2023/07/28 06:56:31;;;;;;;0.10;0.10;;;;;;;17.61;85.95;96682.66;5041534;28;20051;-72
2023/07/28 06:58:59;;;;;;;0.10;0.10;;;;;;;17.63;86.69;96688.66;5043124;28;20060;-71
2023/07/28 07:01:44;;;;;;;0.73;0.73;;;;;;;17.67;86.18;96687.03;5025940;28;20431;-74
2023/07/28 07:04:12;;;;;;;0.10;0.10;;;;;;;17.67;86.22;96691.63;5043951;28;20033;-74
2023/07/28 07:06:41;;;;;;;0.10;0.10;;;;;;;17.66;86.29;96688.09;5081470;22;20648;-72
2023/07/28 07:09:09;;;;;;;0.30;0.30;;;;;;;17.68;85.57;96690.53;5046757;28;20511;-72
2023/07/28 07:11:37;;;;;;;0.10;0.10;;;;;;;17.65;85.59;96688.38;5061116;28;20047;-72
2023/07/28 07:14:05;;;;;;;0.10;0.10;;;;;;;17.63;86.23;96694.03;5042554;28;20045;-72
2023/07/28 07:16:33;;;;;;;0.03;0.03;;;;;;;17.68;86.22;96690.53;5045503;28;20055;-72
2023/07/28 07:19:03;;;;;;;0.10;0.10;;;;;;;17.69;85.97;96692.97;5042970;28;20059;-72
2023/07/28 07:21:31;;;;;;;0.10;0.10;;;;;;;17.70;85.70;96702.72;5041150;28;20047;-72
2023/07/28 07:24:00;;;;;;;0.10;0.10;;;;;;;17.74;85.48;96709.22;5041332;28;20564;-72
2023/07/28 07:26:27;;;;;;;0.10;0.10;;;;;;;17.79;85.75;96716.53;5040709;28;20049;-72
2023/07/28 07:28:55;;;;;;;0.10;0.10;;;;;;;17.83;84.83;96714.94;5041816;28;20045;-72
2023/07/28 07:31:23;;;;;;;0.05;0.05;;;;;;;17.91;84.50;96720.63;5041317;28;20051;-73
2023/07/28 07:33:51;;;;;;;0.10;0.10;;;;;;;17.90;84.24;96726.28;5041643;28;20056;-73
2023/07/28 07:36:20;;;;;;;0.10;0.10;;;;;;;17.91;84.31;96717.94;5020989;28;20131;-72
2023/07/28 07:38:48;;;;;;;0.10;0.10;;;;;;;17.93;84.21;96720.38;5041655;28;20025;-72
2023/07/28 07:41:19;;;;;;;0.05;0.05;;;;;;;17.93;83.65;96714.97;5041523;28;20059;-72
2023/07/28 07:43:47;;;;;;;0.00;0.00;;;;;;;18.01;84.07;96724.47;5040310;28;20037;-72
2023/07/28 07:46:15;;;;;;;0.10;0.10;;;;;;;18.04;84.51;96726.63;5041284;28;20042;-72
2023/07/28 07:48:43;;;;;;;0.13;0.13;;;;;;;18.01;84.19;96724.47;5040125;28;20502;-72
2023/07/28 07:51:11;;;;;;;0.10;0.10;;;;;;;17.96;83.81;96733.38;5040302;28;20128;-72
2023/07/28 07:53:40;;;;;;;0.10;0.10;;;;;;;17.92;84.04;96735.78;5024185;28;20669;-72
2023/07/28 07:56:08;;;;;;;0.10;0.10;;;;;;;17.94;83.89;96741.72;5040189;28;20060;-73
2023/07/28 07:58:36;;;;;;;0.10;0.10;;;;;;;17.96;83.38;96738.75;5039999;28;20050;-72
2023/07/28 08:01:04;;;;;;;0.08;0.08;;;;;;;17.92;83.33;96746.56;5021478;28;20140;-72
2023/07/28 08:03:32;;;;;;;0.10;0.10;;;;;;;17.88;82.78;96750.03;5037258;28;20044;-72
2023/07/28 08:06:00;;;;;;;0.10;0.10;;;;;;;17.92;83.38;96754.66;5040676;28;20402;-72
2023/07/28 08:08:28;;;;;;;0.10;0.10;;;;;;;17.90;83.11;96759.50;5039144;28;20076;-72
2023/07/28 08:10:57;;;;;;;0.10;0.10;;;;;;;17.93;83.41;96760.88;5039909;28;20037;-72
2023/07/28 08:13:25;;;;;;;0.00;0.00;;;;;;;18.02;82.46;96755.78;5038025;28;20048;-72
2023/07/28 08:15:52;;;;;;;0.10;0.10;;;;;;;18.01;82.87;96762.25;5038998;28;20052;-73
2023/07/28 08:18:20;;;;;;;0.20;0.20;;;;;;;18.03;82.62;96760.94;5040650;28;20044;-72
2023/07/28 08:20:48;;;;;;;0.20;0.20;;;;;;;18.12;82.73;96761.25;5040599;28;20155;-73
2023/07/28 08:23:15;;;;;;;0.10;0.10;;;;;;;18.14;81.97;96757.22;5039657;28;20037;-72
2023/07/28 08:25:43;;;;;;;0.10;0.10;;;;;;;18.24;81.21;96764.53;5039998;28;20049;-72
2023/07/28 08:28:12;;;;;;;0.10;0.10;;;;;;;18.24;81.38;96759.13;5039156;28;20123;-73
2023/07/28 08:30:40;;;;;;;0.10;0.10;;;;;;;18.24;81.23;96756.44;5042109;28;20075;-73
2023/07/28 08:33:08;;;;;;;0.10;0.10;;;;;;;18.23;81.62;96766.44;5042867;28;20048;-73
2023/07/28 08:35:35;;;;;;;0.30;0.30;;;;;;;18.29;81.73;96769.94;5043784;28;22671;-73
2023/07/28 08:38:04;;;;;;;0.17;0.17;;;;;;;18.34;81.56;96776.22;5043259;28;20041;-72
2023/07/28 08:40:32;;;;;;;0.10;0.10;;;;;;;18.36;81.28;96773.25;5044688;28;20124;-73
2023/07/28 08:42:59;;;;;;;0.15;0.15;;;;;;;18.39;80.50;96772.69;5043916;28;20056;-72
2023/07/28 08:45:28;;;;;;;0.05;0.05;;;;;;;18.40;80.17;96774.31;5042766;28;20049;-72
2023/07/28 08:47:56;;;;;;;0.10;0.10;;;;;;;18.46;80.51;96776.00;5045342;28;20059;-72
2023/07/28 08:50:24;;;;;;;0.10;0.10;;;;;;;18.45;80.36;96779.75;5045538;28;20769;-72
2023/07/28 08:52:51;;;;;;;0.00;0.00;;;;;;;18.49;79.59;96785.44;5045772;28;20069;-72
2023/07/28 08:55:19;;;;;;;0.00;0.00;;;;;;;18.56;79.61;96784.13;5047653;28;20037;-72
2023/07/28 08:57:47;;;;;;;0.08;0.08;;;;;;;18.56;79.90;96786.84;5046284;28;20044;-73
2023/07/28 09:00:17;;;;;;;0.10;0.10;;;;;;;18.60;79.31;96785.25;5043052;28;20121;-74
2023/07/28 09:02:50;;;;;;;0.00;0.00;;;;;;;18.60;78.79;96789.84;5042784;28;20041;-72
2023/07/28 09:05:23;;;;;;;;;;;;;;;18.64;79.04;96797.16;5025822;28;20438;-72
2023/07/28 09:07:52;;;;;;;0.10;0.10;;;;;;;18.69;78.60;96797.16;5042967;28;20409;-72
2023/07/28 09:10:20;;;;;;;0.10;0.10;;;;;;;18.70;78.78;96793.38;5043009;28;20037;-72
2023/07/28 09:12:48;;;;;;;0.08;0.08;;;;;;;18.79;78.77;96793.66;5025731;28;20123;-72
2023/07/28 09:15:17;;;;;;;0.10;0.10;;;;;;;18.83;78.69;96793.97;5043138;28;20132;-73
2023/07/28 09:17:45;;;;;;;0.10;0.10;;;;;;;18.95;78.13;96800.75;5026510;28;20042;-72
2023/07/28 09:20:17;;;;;;;0.10;0.10;;;;;;;19.03;77.98;96802.13;5042549;28;20075;-72
2023/07/28 09:22:46;;;;;;;0.10;0.10;;;;;;;19.13;77.13;96791.31;5040800;28;20045;-72
2023/07/28 09:25:14;;;;;;;0.00;0.00;;;;;;;19.24;76.87;96798.34;5043024;28;20033;-73
2023/07/28 09:27:50;;;;;;;0.00;0.00;;;;;;;19.36;76.51;96789.97;5043503;28;20067;-73
2023/07/28 09:30:18;;;;;;;0.10;0.10;;;;;;;19.54;75.67;96786.75;5042753;28;20041;-72
2023/07/28 09:32:49;;;;;;;0.00;0.00;;;;;;;19.69;74.63;96785.94;5042095;28;20116;-73
2023/07/28 09:35:19;;;;;;;0.10;0.10;;;;;;;19.73;74.30;96785.09;5042018;28;20052;-74
2023/07/28 09:37:48;;;;;;;0.10;0.10;;;;;;;19.68;74.88;96790.53;5043069;28;20037;-73
2023/07/28 09:40:18;;;;;;;0.00;0.00;;;;;;;19.63;75.18;96792.44;5041857;28;20519;-72
2023/07/28 09:42:49;;;;;;;0.10;0.10;;;;;;;19.64;75.33;96791.34;5041363;28;20531;-72
2023/07/28 09:45:21;;;;;;;0.10;0.10;;;;;;;19.59;75.39;96794.06;5042761;28;20045;-72
2023/07/28 09:48:07;;;;;;;0.10;0.10;;;;;;;19.56;74.27;96789.19;5043728;28;20098;-73
2023/07/28 09:50:37;;;;;;;0.10;0.10;;;;;;;19.84;73.38;96788.63;5043193;28;20044;-73
2023/07/28 09:53:09;;;;;;;0.10;0.10;;;;;;;19.94;72.18;96793.19;5044128;28;20041;-72
2023/07/28 09:55:40;;;;;;;0.15;0.15;;;;;;;19.92;71.93;96781.84;5042365;28;20033;-72
2023/07/28 09:58:10;;;;;;;0.10;0.10;;;;;;;19.84;72.36;96782.38;5045394;28;20055;-74
2023/07/28 10:00:38;;;;;;;0.00;0.00;;;;;;;19.88;72.57;96787.00;5046922;28;20040;-75
2023/07/28 10:03:06;;;;;;;0.13;0.13;;;;;;;19.93;71.89;96778.88;5042865;28;20444;-72
2023/07/28 10:05:36;;;;;;;0.10;0.10;;;;;;;19.99;72.12;96788.59;5041413;28;20103;-73
2023/07/28 10:08:04;;;;;;;0.08;0.08;;;;;;;19.99;72.23;96790.50;5042970;28;20045;-72
2023/07/28 10:10:32;;;;;;;0.10;0.10;;;;;;;19.97;71.55;96798.91;5043006;28;20044;-73
2023/07/28 10:13:00;;;;;;;0.30;0.30;;;;;;;19.97;71.54;96788.06;5041976;28;20406;-72
2023/07/28 10:15:29;;;;;;;0.10;0.10;;;;;;;19.98;71.72;96786.16;5042228;28;20409;-72
2023/07/28 10:17:59;;;;;;;0.10;0.10;;;;;;;19.99;71.14;96799.44;5042351;28;20041;-73
2023/07/28 10:20:38;;;;;;;0.10;0.10;;;;;;;20.09;71.65;96807.53;5041799;28;20052;-73
2023/07/28 10:23:08;;;;;;;0.10;0.10;;;;;;;20.21;71.34;96799.13;5041930;28;20521;-74
2023/07/28 10:25:37;;;;;;;0.00;0.00;;;;;;;20.41;71.14;96787.41;5040046;28;20130;-73
2023/07/28 10:28:05;;;;;;;0.03;0.03;;;;;;;20.55;70.41;96793.88;5040630;28;20060;-73
2023/07/28 10:30:37;;;;;;;0.10;0.10;;;;;;;20.61;69.84;96795.47;5023387;28;20051;-73
2023/07/28 10:33:05;;;;;;;0.10;0.10;;;;;;;20.60;69.97;96799.25;5046877;28;20064;-73
2023/07/28 10:35:34;;;;;;;0.00;0.00;;;;;;;20.71;69.06;96798.13;5048027;28;20460;-72
2023/07/28 10:38:31;;;;;;;0.10;0.10;;;;;;;21.01;68.55;96799.03;5047958;28;20049;-73
2023/07/28 10:41:10;;;;;;;0.03;0.03;;;;;;;21.37;67.90;96805.91;5053274;28;20049;-72
2023/07/28 10:43:39;;;;;;;0.10;0.10;;;;;;;21.37;66.96;96803.19;5044176;28;20140;-73
2023/07/28 10:46:08;;;;;;;0.10;0.10;;;;;;;21.38;66.96;96806.72;5042346;28;20375;-74
2023/07/28 10:48:37;;;;;;;0.10;0.10;;;;;;;21.31;67.40;96798.88;5041843;28;20505;-73
2023/07/28 10:51:05;;;;;;;0.10;0.10;;;;;;;21.31;67.27;96801.59;5026258;28;20450;-73
2023/07/28 10:53:34;;;;;;;0.00;0.00;;;;;;;21.24;67.33;96803.81;5042805;28;20115;-73
2023/07/28 10:56:04;;;;;;;0.10;0.10;;;;;;;21.19;67.82;96815.50;5044274;28;20067;-73
2023/07/28 10:58:34;;;;;;;0.05;0.05;;;;;;;21.29;68.00;96811.09;5046965;28;20041;-75
2023/07/28 11:01:02;;;;;;;0.10;0.10;;;;;;;21.58;67.10;96801.13;5044838;28;20052;-73
2023/07/28 11:03:30;;;;;;;0.10;0.10;;;;;;;21.67;65.76;96801.31;5045485;28;20436;-73
2023/07/28 11:05:58;;;;;;;0.10;0.10;;;;;;;21.74;64.99;96796.34;5044730;28;20067;-73
2023/07/28 11:08:26;;;;;;;0.10;0.10;;;;;;;21.92;65.11;96801.06;5025049;28;20056;-73
2023/07/28 11:10:55;;;;;;;0.00;0.00;;;;;;;22.41;63.68;96792.72;5042994;28;20041;-73
2023/07/28 11:13:24;;;;;;;0.00;0.00;;;;;;;22.45;62.71;96799.16;5024555;28;20053;-73
2023/07/28 11:16:10;;;;;;;0.10;0.10;;;;;;;22.21;63.03;96806.53;5041550;28;20052;-73
2023/07/28 11:18:38;;;;;;;0.10;0.10;;;;;;;22.00;63.61;96805.94;5040415;28;20044;-75
2023/07/28 11:21:06;;;;;;;0.00;0.00;;;;;;;22.08;62.46;96796.34;5041371;28;20046;-71
2023/07/28 11:23:34;;;;;;;0.10;0.10;;;;;;;22.01;63.20;96799.38;5023820;28;20136;-74
2023/07/28 11:26:03;;;;;;;0.00;0.00;;;;;;;22.00;62.44;96797.78;5040375;28;20107;-72
2023/07/28 11:28:31;;;;;;;0.00;0.00;;;;;;;22.01;62.54;96795.88;5039552;28;20948;-72
2023/07/28 11:31:00;;;;;;;0.00;0.00;;;;;;;21.92;63.58;96809.22;5040760;28;20049;-73
2023/07/28 11:33:28;;;;;;;0.00;0.00;;;;;;;21.83;64.40;96803.59;5040831;28;20052;-73
2023/07/28 11:35:56;;;;;;;0.00;0.00;;;;;;;21.85;64.78;96808.75;5040675;28;20052;-72
2023/07/28 11:38:25;;;;;;;0.10;0.10;;;;;;;21.91;64.45;96811.13;5040093;28;20501;-72
2023/07/28 11:40:54;;;;;;;0.10;0.10;;;;;;;21.97;64.45;96804.56;5041473;28;20056;-72
2023/07/28 11:43:24;;;;;;;0.10;0.10;;;;;;;22.09;64.57;96815.09;5040178;28;20045;-73
2023/07/28 11:45:52;;;;;;;0.10;0.10;;;;;;;22.06;63.93;96809.41;5040566;28;20106;-73